createdAt,value
2023-04-19T00:04:54.114Z,7.05
2023-04-19T00:15:15.393Z,7.04
2023-04-19T00:25:36.714Z,7.04
2023-04-19T00:35:57.694Z,7.02
2023-04-19T00:46:18.983Z,7.02
2023-04-19T00:56:41.147Z,7.00
2023-04-19T01:07:03.523Z,7.00
2023-04-19T01:17:25.855Z,6.98
2023-04-19T01:27:47.273Z,6.97
2023-04-19T01:38:08.105Z,6.96
2023-04-19T01:48:29.267Z,6.97
2023-04-19T01:58:51.132Z,6.97
2023-04-19T02:09:12.710Z,6.97
2023-04-19T02:19:36.773Z,6.97
2023-04-19T02:29:59.801Z,6.97
2023-04-19T02:40:23.081Z,6.95
2023-04-19T02:50:45.022Z,6.95
2023-04-19T03:01:07.118Z,6.96
2023-04-19T03:11:28.677Z,6.95
2023-04-19T03:21:49.754Z,6.94
2023-04-19T03:32:12.237Z,6.95
2023-04-19T03:42:33.604Z,6.95
2023-04-19T03:53:06.055Z,6.94
2023-04-19T04:03:27.936Z,6.94
2023-04-19T04:13:50.619Z,6.93
2023-04-19T04:24:20.406Z,6.93
2023-04-19T04:35:04.764Z,6.93
2023-04-19T04:45:55.804Z,6.91
2023-04-19T04:56:18.410Z,6.91
2023-04-19T05:06:41.380Z,6.91
2023-04-19T05:17:06.974Z,6.91
2023-04-19T05:27:29.080Z,6.90
2023-04-19T05:37:50.522Z,6.90
2023-04-19T05:48:12.638Z,6.89
2023-04-19T05:58:50.386Z,6.90
2023-04-19T06:09:12.976Z,6.88
2023-04-19T06:19:34.702Z,6.89
2023-04-19T06:29:56.105Z,6.90
2023-04-19T06:40:17.687Z,6.94
2023-04-19T06:50:38.776Z,6.93
2023-04-19T07:01:01.643Z,6.94
2023-04-19T07:11:23.001Z,6.94
2023-04-19T07:21:44.244Z,6.94
2023-04-19T07:32:06.122Z,6.97
2023-04-19T07:42:27.435Z,6.97
2023-04-19T07:52:48.920Z,6.99
2023-04-19T08:03:10.412Z,7.01
2023-04-19T08:13:32.148Z,7.03
2023-04-19T08:23:54.440Z,7.03
2023-04-19T08:34:15.880Z,7.05
2023-04-19T08:44:58.993Z,7.11
2023-04-19T08:55:22.313Z,7.17
2023-04-19T09:05:43.839Z,7.23
2023-04-19T09:16:06.013Z,7.27
2023-04-19T09:26:30.067Z,7.33
2023-04-19T09:37:00.691Z,7.36
2023-04-19T09:47:35.530Z,7.39
2023-04-19T09:57:57.063Z,7.43
2023-04-19T10:08:18.400Z,7.54
2023-04-19T10:18:39.975Z,7.68
2023-04-19T10:29:01.003Z,7.91
2023-04-19T10:39:44.932Z,8.10
2023-04-19T10:50:06.425Z,8.32
2023-04-19T11:00:31.681Z,8.48
2023-04-19T11:10:57.043Z,8.62
2023-04-19T11:21:18.818Z,8.73
2023-04-19T11:31:40.488Z,8.90
2023-04-19T11:42:02.304Z,9.04
2023-04-19T11:52:25.096Z,9.14
2023-04-19T12:02:46.633Z,9.23
2023-04-19T12:13:18.165Z,9.28
2023-04-19T12:23:39.310Z,9.32
2023-04-19T12:34:00.385Z,9.33
2023-04-19T12:44:21.780Z,9.35
2023-04-19T12:54:43.081Z,9.38
2023-04-19T13:05:06.047Z,9.38
2023-04-19T13:15:27.152Z,9.40
2023-04-19T13:25:48.475Z,9.42
2023-04-19T13:36:09.812Z,9.36
2023-04-19T13:46:31.523Z,9.30
2023-04-19T13:56:52.977Z,9.31
2023-04-19T14:07:14.255Z,9.30
2023-04-19T14:17:36.205Z,9.26
2023-04-19T14:27:59.755Z,9.27
2023-04-19T14:38:20.885Z,9.29
2023-04-19T14:48:43.013Z,9.29
2023-04-19T14:59:07.146Z,9.29
2023-04-19T15:09:28.449Z,9.29
2023-04-19T15:19:50.025Z,9.28
2023-04-19T15:30:12.532Z,9.29
2023-04-19T15:40:34.009Z,9.26
2023-04-19T15:50:54.971Z,9.25
2023-04-19T16:01:18.378Z,9.23
2023-04-19T16:11:40.834Z,9.21
2023-04-19T16:22:05.396Z,9.17
2023-04-19T16:32:26.480Z,9.09
2023-04-19T16:42:47.931Z,9.00
2023-04-19T16:53:08.967Z,8.88
2023-04-19T17:03:34.150Z,8.78
2023-04-19T17:13:56.782Z,8.70
2023-04-19T17:24:18.602Z,8.64
2023-04-19T17:34:40.212Z,8.57
2023-04-19T17:45:01.382Z,8.50
2023-04-19T17:55:22.427Z,8.41
2023-04-19T18:05:43.639Z,8.33
2023-04-19T18:16:05.585Z,8.24
2023-04-19T18:26:37.291Z,8.17
2023-04-19T18:37:00.998Z,8.08
2023-04-19T18:47:22.893Z,7.99
2023-04-19T18:57:44.325Z,7.92
2023-04-19T19:08:05.693Z,7.85
2023-04-19T19:18:27.777Z,7.79
2023-04-19T19:28:49.371Z,7.71
2023-04-19T19:39:13.355Z,7.63
2023-04-19T19:49:51.455Z,7.59
2023-04-19T20:00:41.970Z,7.56
2023-04-19T20:10:58.968Z,7.41
2023-04-19T20:21:21.861Z,7.31
2023-04-19T20:31:43.022Z,7.18
2023-04-19T20:42:07.402Z,7.07
2023-04-19T20:52:28.668Z,6.99
2023-04-19T21:02:50.376Z,6.89
2023-04-19T21:13:11.905Z,6.78
2023-04-19T21:23:32.934Z,6.66
2023-04-19T21:33:54.129Z,6.59
2023-04-19T21:44:15.136Z,6.52
2023-04-19T21:54:36.466Z,6.46
2023-04-19T22:05:00.645Z,6.39
2023-04-19T22:15:22.445Z,6.32
2023-04-19T22:25:43.548Z,6.32
2023-04-19T22:36:06.255Z,6.26
2023-04-19T22:46:27.659Z,6.21
2023-04-19T22:56:48.807Z,6.16
2023-04-19T23:07:10.284Z,6.14
2023-04-19T23:17:32.007Z,6.07
2023-04-19T23:27:53.437Z,6.03
2023-04-19T23:38:14.859Z,6.00
2023-04-19T23:48:36.263Z,5.97
2023-04-19T23:58:57.755Z,5.96
